Air Resources Laboratory banner image
Air Resources Laboratory web site National Oceanic and Atmospheric Administration (NOAA)

ca metar


KAAT 231955Z AUTO 26010G18KT 10SM FEW075 21/10 A2992 RMK AO2 LTG DSNT ALQDS
 SLP100 T02110100=
KACV 231953Z AUTO 28007KT 10SM OVC022 15/10 A2993 RMK AO2 SLP141 T01500100=
KAPC 231954Z 24010KT 10SM OVC020 16/11 A2996 RMK AO2 SLP135 T01610106=
KAVX 231951Z AUTO 27005KT M1/4SM FG VV002 12/ A3000 RMK AO2 SLP156 T0117=
KBAB 231958Z AUTO 19010KT 10SM FEW200 22/12 A2988 RMK AO2 SLP121 T02210123 $=
KBFL 231954Z 27007KT 10SM CLR 27/11 A2988 RMK AO2 SLP114 T02670111=
KBIH 231956Z AUTO 16017G21KT 10SM BKN120 26/02 A2990 RMK AO2 SLP080 T02560022=
KBLH 231952Z AUTO VRB05KT 10SM CLR 31/03 A2985 RMK AO2 SLP101 T03110028=
KBLU 231952Z AUTO 19007KT 10SM -RA FEW018 BKN034 OVC090 14/11 A3004 RMK AO2
 RAB47 SLP116 P0000 T01440106=
KBUR 231953Z 00000KT 10SM OVC025 18/12 A2997 RMK AO2 SLP139 T01780122=
KBYS 231955Z AUTO 14010G15KT 10SM CLR 29/02 A2990 RMK AO2 SLP090 WND DATA ESTMD
 T02850015=
KCCR 231953Z 23012KT 10SM OVC023 17/10 A2996 RMK AO2 SLP132 T01720100=
KCEC 231956Z AUTO 31005KT 10SM SCT008 BKN012 OVC020 13/12 A2994 RMK AO2 SLP139
 T01330117=
KCIC 231950Z 15008KT 10SM SCT100 22/10 A2989=
KCMA 231955Z 21007KT 10SM FEW018 OVC033 18/12 A2998 RMK AO2 SLP161 T01780117=
KCNO 231953Z 19005KT 7SM BKN032 OVC040 21/12 A2998 RMK AO2 SLP148 T02060117=
KCQT 231947Z AUTO VRB03KT 10SM OVC030 19/12 A2997 RMK AO2 SLP147 T01890122=
KCRQ 231953Z 27006KT 10SM BKN023 OVC027 16/13 A2997 RMK AO2 SLP147 T01610133=
KCZZ 231952Z AUTO 21016G22KT 21/08 A2992 RMK AO1 SLP112 T02110083=
KDAG 231950Z AUTO 07009KT 10SM CLR 31/06 A2986 RMK AO2 SLP087 T03060056=
KEDW 231958Z 11005KT 50SM FEW080 28/06 A2987 RMK AO2A SLP096 T02770059=
KEED 231956Z AUTO 10SM CLR 33/00 A2984 RMK AO2 SLP073 T03330000=
KEMT 231950Z 00000KT 10SM OVC028 19/11 A2997=
KFAT 231953Z 30005KT 10SM FEW070 26/12 A2989 RMK AO2 SLP120 CU OMTNS DSNT E
 T02560117=
KFCH 231955Z AUTO 00000KT 10SM CLR 25/12 A2989 RMK A01=
KFOT 231955Z AUTO 31006KT 10SM OVC021 15/12 A2993 RMK AO1=
KFUL 231953Z VRB04KT 10SM OVC026 19/13 A2997 RMK AO2 SLP146 T01940128=
KHHR 231953Z 26008KT 10SM BKN023 OVC029 18/13 A2998 RMK AO2 SLP153 T01780128=
KHJO 231953Z AUTO 26005KT 10SM CLR 26/11 A2990 RMK AO2 SLP124 T02610111=
KHWD 231954Z 30011KT 10SM SCT014 OVC029 16/11 A2997 RMK AO2 SLP160 T01610106=
KIPL 231953Z AUTO 10SM CLR 30/08 A2983 RMK AO2 SLP102 T03000083=
KIZA 231955Z AUTO 19010G14KT 10SM SCT032 21/11 A2997 RMK AO2=
KLAX 231953Z 26010KT 8SM SCT025 BKN032 18/12 A2998 RMK AO2 SLP152 T01780122=
KLGB 231953Z 30005KT 10SM OVC023 19/12 A2998 RMK AO2 SLP151 T01890122=
KLPC 231956Z AUTO 30011KT 10SM BKN031 18/11 A2999 RMK AO2 SLP158 T01780111=
KLVK 231953Z 26012KT 10SM BKN024 18/12 A2995 RMK AO2 SLP141 T01780122=
KMAE 231953Z AUTO VRB03KT 10SM CLR 24/12 A2991 RMK AO2 SLP124 T02440117=
KMCC 231950Z AUTO 20011G16KT 10SM CLR 20/10 A2992 RMK AO2=
KMCE 231953Z AUTO 32007KT 10SM CLR 23/11 A2990 RMK AO2 SLP124 T02330111=
KMER 231945Z 33005KT 10SM SKC 26/11 A2991=
KMHR 231955Z 20009G16KT 10SM SCT025 20/11 A2991=
KMHS 231956Z AUTO 10SM CLR 22/12 A2991 RMK AO2 SLP121 T02220117=
KMHV 231940Z AUTO VRB04G13KT 10SM CLR 26/05 A2991 RMK A01=
KMMH 231955Z AUTO 09007KT 10SM CLR 18/04 A3007 RMK AO2 T01800040=
KMRY 231954Z 21008KT 10SM BKN023 16/10 A3000 RMK AO2 SLP169 T01560100=
KMYF 231953Z 28007KT 10SM OVC018 17/12 A2998 RMK AO2 SLP149 T01720122=
KMYV 231953Z AUTO 17013G19KT 10SM CLR 22/12 A2990 RMK AO2 SLP129 T02220117=
KNFG 231955Z 25006KT 10SM BKN027 BKN040 19/13 A2997 RMK AO2 SLP147 T01890133=
KNID 231956Z 21010G16KT 10SM FEW080 31/03 A2987 RMK AO2 SLP094 T03110028=
KNJK 231956Z 09006KT 10SM FEW080 31/09 A2985 RMK AO2 SLP123 T03060094 $=
KNKX 231955Z 29009KT 10SM FEW022 BKN027 21/12 A2997 RMK AO2 SLP144 T02060122 $=
KNLC 231956Z VRB04KT 10SM CLR 26/11 A2989 RMK AO2 SLP121 RH/40 T02560111=
KNRS 231956Z 26012KT 10SM FEW018 SCT031 19/12 A2999 RMK AO2 SLP154 T01890122=
KNSI 231957Z 35003KT 10SM BKN015 16/08 A3000 RMK AO2 SLP155 T01560083 $=
KNTD 231958Z 24005KT 10SM OVC027 17/13 A3000 RMK AO2 SLP159 T01720128 CHINO N
 VISNO N $=
KNUC 231956Z 28007KT 10SM BKN014 OVC028 16/12 A3001 RMK AO2 SLPNO T01610117 $=
KNUQ 231956Z 01013KT 10SM OVC029 17/11 A2997 RMK AO2 SLP150 T01720111=
KNXP 231956Z 10010KT 10SM FEW040 29/M01 A2995 RMK AO2 SLP108 T02941011=
KNZY 231952Z 27008KT 10SM FEW015 SCT022 BKN031 18/12 A2997 RMK SLP149 T01830122=
KO54 231955Z AUTO 11005KT 10SM BKN045 25/13 A2987 RMK AO1=
KOAK 231953Z 27009KT 10SM SCT011 BKN020 OVC026 14/11 A2999 RMK AO2 SLP154
 T01390106=
KOKB 231952Z AUTO 25008KT 10SM FEW018 BKN028 OVC033 18/13 A2997 RMK AO2 SLP148
 T01830128=
KONT 231953Z 21004KT 9SM FEW024 OVC029 18/11 A2997 RMK AO2 SLP142 T01830111=
KOVE 231953Z AUTO 15011G16KT 10SM CLR 22/12 A2991 RMK AO2 SLP128 T02220122=
KOXR 231951Z 24006KT 10SM SCT015 OVC034 17/12 A2999 RMK AO2 SLP154 T01720122=
KPMD 231953Z AUTO 21011KT 10SM CLR 26/09 A2991 RMK AO2 SLP108 T02610089=
KPOC 231947Z 26004KT 10SM BKN024 17/11 A3001=
KPRB 231953Z AUTO 23010KT 10SM CLR 21/10 A2995 RMK AO2 SLP137 T02060100=
KPSP 231953Z VRB06KT 10SM CLR 29/09 A2988 RMK AO2 SLP114 T02940094=
KPTV 231956Z AUTO 31007KT 10SM CLR 26/13 A2990 RMK AO2 SLP133 T02610128=
KRAL 231953Z 27004KT 10SM OVC027 19/11 A2997 RMK AO2 SLP136 T01890111=
KRBL 231954Z AUTO VRB05KT 10SM CLR 24/13 A2987 RMK AO2 SLP110 T02440128=
KRDD 231953Z 34003KT 10SM FEW060 24/13 A2985 RMK AO2 SLP102 T02440133=
KRHV 231947Z 14008KT 10SM OVC036 19/10 A2995=
KRIV 231958Z AUTO 27005KT 10SM SCT027 BKN140 BKN190 19/11 A2997 RMK AO2 SLP143
 T01930108 $=
KRNM 231953Z 27009G15KT 10SM CLR 21/11 A2996 RMK AO2 SLP135 T02110111=
KSAC 231953Z 20011G18KT 10SM FEW025 19/12 A2992 RMK AO2 SLP130 T01940122=
KSAN 231951Z 32009KT 10SM FEW016 SCT022 OVC032 18/12 A2999 RMK AO2 SLP156
 T01830122=
KSBA 231953Z 22007KT 190V250 10SM OVC035 17/12 A2999 RMK AO2 SLP156 T01720117=
KSBD 231950Z 33003KT 4SM HZ OVC028 20/10 A2997=
KSBP 231956Z 23011G15KT 10SM SCT029 19/10 A2998 RMK AO2 SLP152 T01890100=
KSCK 231955Z 27009KT 10SM CLR 24/11 A2991 RMK AO2 SLP128 T02440106=
KSDB 231953Z AUTO 20009KT 10SM CLR 17/09 A3002 RMK AO2 SLP130 T01670089=
KSDM 231953Z 28007KT 260V320 10SM SCT023 20/12 A2997 RMK AO2 SLP145 T02000122=
KSEE 231947Z 26009G15KT 10SM SCT031 20/11 A2996=
KSFO 231956Z 27011KT 10SM FEW014 OVC019 16/09 A2998 RMK AO2 SLP151 T01560094=
KSIY 231953Z AUTO 00000KT 10SM CLR 25/11 A2986 RMK AO2 SLP101 T02500106=
KSJC 231953Z 29009KT 10SM FEW022 BKN032 OVC039 19/11 A2996 RMK AO2 SLP146
 T01890106=
KSLI 231958Z 22004KT 10SM OVC023 18/12 A2998 RMK AO2A SLP155 T01800124=
KSMF 231953Z 16009G17KT 140V200 10SM FEW250 22/12 A2989 RMK AO2 SLP121
 T02220122=
KSMO 231951Z 23008KT 10SM OVC034 17/12 A2998 RMK AO2 SLP152 T01720122=
KSMX 231951Z 32004KT 10SM OVC021 17/11 A2999 RMK AO2 SLP158 T01720111=
KSNA 231953Z 00000KT 10SM OVC030 19/12 A2997 RMK AO2 SLP150 T01890122=
KSNS 231953Z 26005KT 10SM OVC021 16/10 A2999 RMK AO2 SLP165 T01560100=
KSQL 231955Z 28011KT 10SM OVC025 15/10 A2997=
KSTS 231953Z 19009KT 10SM OVC020 15/11 A2994 RMK AO2 SLP134 T01500106=
KSUU 231958Z AUTO 24021G26KT 10SM CLR 19/11 A2990 RMK AO2 PK WND 24027/44
 SLP132 T01880106 $=
KSVE 231955Z AUTO 31009KT 10SM SCT050 BKN070 BKN080 22/08 A2991 RMK AO2=
KTOA 231948Z 27010KT 10SM BKN016 OVC032 17/12 A2999=
KTRK 231945Z 32007KT 270V340 10SM SCT035 SCT050 BKN080 14/08 A3003=
KTRM 231952Z AUTO 16009KT 110V180 10SM CLR 31/11 A2982 RMK AO2 SLP101 T03110106=
KTVL 231953Z AUTO VRB05KT 10SM FEW041 SCT049 BKN100 17/07 A3002 RMK AO2
 RAB18E29 SLP122 P0000 T01670072=
KUKI 231956Z AUTO 13012G17KT 10SM CLR 19/11 A2991 RMK AO2 SLP122 T01890106=
KVBG 231955Z 30007KT 270V340 7SM FEW010 SCT016 BKN021 15/10 A3001 RMK AO2A
 SLP163 T01520100=
KVCB 231953Z AUTO 21015G23KT 10SM CLR 21/14 A2991 RMK AO2 SLP127 T02060139=
KVIS 231956Z AUTO VRB06KT 10SM CLR 25/13 A2990 RMK AO2 SLP128 T02500128=
KVNY 231951Z 15004KT 10SM OVC027 18/11 A2997 RMK AO2 SLP142 T01830111=
KWJF 231956Z 24010KT 10SM CLR 27/08 A2990 RMK AO2 SLP111 T02670083=
KWVI 231953Z AUTO 23009KT 10SM BKN016 OVC023 16/11 A3000 RMK AO2 SLP158
 T01560111=